Time;durP1;ratioP1;P1;durP2;ratioP2;P2;SDS_P1;SDS_P2;PMS_P1;PMS_P2;Temp;Humidity;BMP_temperature;BMP_pressure;BME280_temperature;BME280_humidity;BME280_pressure;Samples;Min_cycle;Max_cycle;Signal;HPM_P1;HPM_P2
2021/07/22 00:02:15;;;;;;;10.95;9.40;;;;;;;24.18;47.04;102450.06;5036448;28;20498;-78
2021/07/22 00:04:41;;;;;;;11.07;8.75;;;;;;;24.16;46.63;102449.22;5053046;28;20033;-78
2021/07/22 00:07:06;;;;;;;10.75;8.77;;;;;;;24.17;46.90;102450.94;5035890;28;20491;-78
2021/07/22 00:09:32;;;;;;;10.85;9.25;;;;;;;24.17;47.01;102445.66;5053071;28;20028;-78
2021/07/22 00:12:00;;;;;;;11.05;9.60;;;;;;;24.16;46.89;102447.44;5053148;28;20024;-78
2021/07/22 00:14:28;;;;;;;11.93;9.25;;;;;;;24.17;47.13;102449.19;5036881;28;20056;-78
2021/07/22 00:16:54;;;;;;;10.65;8.80;;;;;;;24.15;46.95;102437.81;5021104;28;20442;-77
2021/07/22 00:19:19;;;;;;;12.15;9.93;;;;;;;24.14;47.25;102441.31;5052770;28;20067;-77
2021/07/22 00:21:45;;;;;;;11.27;9.80;;;;;;;24.14;47.34;102437.84;5054113;28;20079;-77
2021/07/22 00:24:10;;;;;;;11.10;9.50;;;;;;;24.16;47.01;102443.94;5019543;28;20024;-77
2021/07/22 00:26:37;;;;;;;11.18;9.68;;;;;;;24.13;47.31;102439.59;5036036;28;20025;-79
2021/07/22 00:29:03;;;;;;;11.18;9.27;;;;;;;24.14;47.18;102438.69;5036280;28;20021;-79
2021/07/22 00:31:28;;;;;;;11.68;10.00;;;;;;;24.14;47.10;102437.84;5036029;28;20025;-78
2021/07/22 00:33:54;;;;;;;11.32;9.60;;;;;;;24.14;47.15;102441.31;5052526;28;20057;-78
2021/07/22 00:36:19;;;;;;;13.68;9.40;;;;;;;24.14;47.38;102432.56;5019495;28;20110;-78
2021/07/22 00:38:44;;;;;;;10.23;9.13;;;;;;;24.13;47.05;102430.84;5019455;28;20027;-78
2021/07/22 00:41:13;;;;;;;12.45;9.93;;;;;;;24.12;47.49;102434.34;5052508;28;20079;-78
2021/07/22 00:43:40;;;;;;;10.45;9.35;;;;;;;24.11;47.21;102436.13;5036194;28;20033;-78
2021/07/22 00:46:06;;;;;;;11.20;8.95;;;;;;;24.11;47.45;102436.13;5052405;28;20086;-79
2021/07/22 00:48:32;;;;;;;11.35;9.00;;;;;;;24.11;47.26;102430.84;5035957;28;20425;-78
2021/07/22 00:50:57;;;;;;;10.27;9.25;;;;;;;24.10;47.29;102434.34;5052628;28;20536;-78
2021/07/22 00:53:22;;;;;;;11.63;9.40;;;;;;;24.10;47.57;102439.63;5019929;28;20025;-79
2021/07/22 00:55:48;;;;;;;12.55;9.05;;;;;;;24.08;47.41;102432.63;5052572;28;20021;-79
2021/07/22 00:58:13;;;;;;;18.20;9.48;;;;;;;24.08;47.45;102432.63;5052312;28;20459;-78
2021/07/22 01:00:38;;;;;;;11.85;9.10;;;;;;;24.09;47.70;102440.53;5052331;28;20075;-79
2021/07/22 01:03:04;;;;;;;12.00;8.75;;;;;;;24.09;47.62;102437.03;5019207;28;20021;-78
2021/07/22 01:05:30;;;;;;;10.02;8.52;;;;;;;24.09;47.18;102432.63;5019290;28;20024;-78
2021/07/22 01:07:55;;;;;;;10.07;8.73;;;;;;;24.08;47.39;102430.00;5068862;28;20517;-78
2021/07/22 01:10:20;;;;;;;9.73;8.43;;;;;;;24.08;47.55;102433.50;5019234;28;20029;-79
2021/07/22 01:12:46;;;;;;;10.25;8.23;;;;;;;24.07;47.38;102429.16;5019188;28;20060;-79
2021/07/22 01:15:11;;;;;;;9.10;8.07;;;;;;;24.07;47.53;102426.53;5035585;28;20116;-80
2021/07/22 01:17:50;;;;;;;9.70;8.70;;;;;;;24.07;47.62;102428.28;5035558;28;20029;-79
2021/07/22 01:20:23;;;;;;;11.07;8.70;;;;;;;24.06;47.53;102431.78;5055975;28;20509;-78
2021/07/22 01:22:50;;;;;;;11.65;8.50;;;;;;;24.06;47.50;102429.16;5056224;28;20471;-80
2021/07/22 01:25:16;;;;;;;9.23;8.13;;;;;;;24.06;47.43;102423.91;5040347;28;20105;-80
2021/07/22 01:27:42;;;;;;;8.85;7.55;;;;;;;24.04;47.18;102437.09;5042182;28;20025;-79
2021/07/22 01:30:09;;;;;;;11.73;8.30;;;;;;;24.03;47.56;102427.44;5058760;28;20067;-79
2021/07/22 01:32:35;;;;;;;10.32;8.70;;;;;;;24.03;47.12;102428.31;5059787;28;20107;-81
2021/07/22 01:35:00;;;;;;;8.90;7.60;;;;;;;24.02;47.21;102434.47;5061347;28;20052;-79
2021/07/22 01:37:26;;;;;;;9.52;7.60;;;;;;;24.02;47.23;102426.56;5039984;28;20472;-80
2021/07/22 01:39:52;;;;;;;9.52;7.68;;;;;;;24.02;47.23;102425.72;5055986;28;20116;-80
2021/07/22 01:42:17;;;;;;;8.48;7.15;;;;;;;24.01;47.24;102424.81;5039530;28;20472;-79
2021/07/22 01:44:43;;;;;;;8.68;7.75;;;;;;;24.00;47.57;102417.84;5039806;28;20568;-79
2021/07/22 01:47:08;;;;;;;8.60;7.40;;;;;;;23.98;46.94;102424.88;5039113;28;20494;-78
2021/07/22 01:49:34;;;;;;;8.55;7.65;;;;;;;23.98;47.34;102424.00;5039278;28;20021;-79
2021/07/22 01:52:03;;;;;;;9.75;7.40;;;;;;;23.98;47.05;102419.59;5055803;28;20078;-80
2021/07/22 01:54:28;;;;;;;10.07;7.65;;;;;;;23.96;47.22;102416.13;5039595;28;20067;-78
2021/07/22 01:56:56;;;;;;;8.05;7.25;;;;;;;23.95;47.37;102422.28;5038861;28;20025;-79
2021/07/22 01:59:22;;;;;;;8.73;7.20;;;;;;;23.96;46.93;102423.16;5055435;28;20029;-81
2021/07/22 02:01:47;;;;;;;9.88;7.82;;;;;;;23.96;47.22;102418.75;5022252;28;20028;-80
2021/07/22 02:04:12;;;;;;;9.65;7.03;;;;;;;23.97;47.10;102423.09;5055657;28;20154;-80
2021/07/22 02:06:39;;;;;;;8.90;7.15;;;;;;;23.95;46.95;102417.03;5022291;28;20052;-80
2021/07/22 02:09:04;;;;;;;8.68;7.43;;;;;;;23.96;47.00;102416.13;5055474;28;20453;-80
2021/07/22 02:11:30;;;;;;;8.20;7.07;;;;;;;23.97;46.77;102422.25;5022221;28;20028;-80
2021/07/22 02:13:55;;;;;;;9.10;7.25;;;;;;;23.94;47.01;102415.28;5041997;28;20080;-78
2021/07/22 02:16:20;;;;;;;9.23;7.18;;;;;;;23.95;46.80;102413.50;5039484;28;20039;-79
2021/07/22 02:18:46;;;;;;;7.53;6.82;;;;;;;23.96;46.73;102420.50;5022487;28;20025;-80
2021/07/22 02:21:11;;;;;;;7.63;6.75;;;;;;;23.94;47.08;102412.63;5022108;28;20119;-79
2021/07/22 02:23:36;;;;;;;8.15;6.85;;;;;;;23.96;46.71;102413.50;5038569;28;20035;-79
2021/07/22 02:26:06;;;;;;;8.32;6.82;;;;;;;23.95;46.67;102413.50;5038480;28;20033;-80
2021/07/22 02:28:31;;;;;;;8.10;7.30;;;;;;;23.95;46.83;102414.41;5055013;28;20025;-79
2021/07/22 02:30:57;;;;;;;7.90;6.82;;;;;;;23.96;46.73;102417.88;5054420;28;20455;-80
2021/07/22 02:33:23;;;;;;;8.15;7.28;;;;;;;23.95;46.78;102418.75;5021733;28;20059;-80
2021/07/22 02:35:48;;;;;;;9.02;7.20;;;;;;;23.95;46.88;102419.66;5021812;28;20087;-79
2021/07/22 02:38:13;;;;;;;8.05;7.25;;;;;;;23.95;46.99;102417.03;5038241;28;20017;-81
2021/07/22 02:40:39;;;;;;;8.25;7.20;;;;;;;23.95;46.79;102424.00;5021693;28;20055;-80
2021/07/22 02:43:06;;;;;;;8.23;7.20;;;;;;;23.93;47.04;102426.69;5038270;28;20376;-80
2021/07/22 02:45:32;;;;;;;8.10;7.03;;;;;;;23.92;46.58;102422.28;5054646;28;20032;-80
2021/07/22 02:47:57;;;;;;;6.97;6.28;;;;;;;23.93;46.86;102418.81;5054802;28;20025;-80
2021/07/22 02:50:23;;;;;;;8.07;7.10;;;;;;;23.93;46.68;102420.53;5055982;28;20057;-80
2021/07/22 02:52:48;;;;;;;7.85;7.05;;;;;;;23.93;46.83;102417.91;5022092;28;20036;-80
2021/07/22 02:55:14;;;;;;;8.80;7.15;;;;;;;23.92;46.56;102417.03;5043709;28;20028;-80
2021/07/22 02:57:39;;;;;;;8.65;7.47;;;;;;;23.92;46.75;102418.81;5021678;28;20017;-80
2021/07/22 03:00:06;;;;;;;8.88;7.30;;;;;;;23.91;46.70;102417.94;5021349;28;20025;-80
2021/07/22 03:02:32;;;;;;;9.05;7.20;;;;;;;23.91;46.60;102419.69;5021349;28;20040;-80
2021/07/22 03:04:57;;;;;;;7.80;7.00;;;;;;;23.91;46.67;102422.31;5037717;28;20025;-80
2021/07/22 03:07:23;;;;;;;7.88;7.07;;;;;;;23.90;46.51;102423.22;5037689;28;20037;-79
2021/07/22 03:09:49;;;;;;;7.70;6.90;;;;;;;23.91;46.52;102417.06;5037787;28;20025;-81
2021/07/22 03:12:14;;;;;;;7.85;6.72;;;;;;;23.89;46.41;102424.97;5055583;28;20021;-80
2021/07/22 03:14:40;;;;;;;7.70;6.85;;;;;;;23.89;46.54;102419.72;5054041;28;20044;-80
2021/07/22 03:17:05;;;;;;;8.45;7.13;;;;;;;23.88;46.35;102420.59;5054905;28;20087;-87
2021/07/22 03:19:31;;;;;;;7.53;6.75;;;;;;;23.87;46.45;102418.88;5056220;28;20036;-87
2021/07/22 03:21:56;;;;;;;8.20;7.05;;;;;;;23.86;46.62;102417.09;5022938;28;20036;-87
2021/07/22 03:24:22;;;;;;;8.77;7.05;;;;;;;23.87;46.48;102418.00;5022385;28;20037;-88
2021/07/22 03:26:47;;;;;;;9.18;7.53;;;;;;;23.86;46.58;102414.47;5038629;28;20679;-87
2021/07/22 03:29:12;;;;;;;8.35;6.72;;;;;;;23.86;46.51;102417.09;5055291;28;20110;-88
2021/07/22 03:31:38;;;;;;;8.35;7.03;;;;;;;23.86;46.50;102417.09;5037247;28;20028;-80
2021/07/22 03:34:03;;;;;;;8.73;7.05;;;;;;;23.85;46.30;102415.38;5023584;28;20407;-79
2021/07/22 03:36:28;;;;;;;8.15;7.10;;;;;;;23.86;46.41;102417.09;5037347;28;20126;-79
2021/07/22 03:38:54;;;;;;;7.38;6.43;;;;;;;23.85;46.44;102423.25;5020710;28;20472;-79
2021/07/22 03:41:22;;;;;;;8.05;7.10;;;;;;;23.86;46.25;102418.88;5036103;28;20498;-79
2021/07/22 03:43:47;;;;;;;7.90;7.10;;;;;;;23.85;46.43;102418.00;5037485;28;20056;-81
2021/07/22 03:46:13;;;;;;;8.20;6.53;;;;;;;23.85;46.53;102417.13;5037032;28;20056;-80
2021/07/22 03:48:38;;;;;;;9.35;7.15;;;;;;;23.85;46.30;102415.38;5037096;28;20604;-79
2021/07/22 03:51:03;;;;;;;7.35;6.53;;;;;;;23.85;46.33;102418.00;5037173;28;20547;-78
2021/07/22 03:53:29;;;;;;;7.50;6.80;;;;;;;23.85;46.20;102406.63;5020361;28;20431;-78
2021/07/22 03:55:56;;;;;;;8.73;6.50;;;;;;;23.86;46.49;102410.97;5036776;28;20052;-79
2021/07/22 03:58:21;;;;;;;8.57;7.35;;;;;;;23.85;46.49;102406.63;5020672;28;20025;-79
2021/07/22 04:00:46;;;;;;;10.00;7.13;;;;;;;23.84;46.42;102415.38;5036824;28;20479;-80
2021/07/22 04:03:12;;;;;;;8.13;7.20;;;;;;;23.81;46.45;102418.94;5053325;28;20513;-79
2021/07/22 04:05:37;;;;;;;9.00;7.45;;;;;;;23.81;46.34;102414.53;5036506;28;20057;-80
2021/07/22 04:08:03;;;;;;;7.90;6.93;;;;;;;23.83;46.23;102414.53;5036354;28;20045;-79
2021/07/22 04:10:29;;;;;;;7.53;6.82;;;;;;;23.83;46.30;102413.66;5053328;28;20367;-79
2021/07/22 04:12:59;;;;;;;8.77;6.80;;;;;;;23.85;46.06;102417.13;5020501;28;20040;-78
2021/07/22 04:15:26;;;;;;;8.57;7.00;;;;;;;23.84;45.96;102424.13;5038889;28;20029;-87
2021/07/22 04:17:53;;;;;;;7.57;6.75;;;;;;;23.81;45.67;102417.16;5036713;28;20428;-87
2021/07/22 04:20:19;;;;;;;8.88;7.15;;;;;;;23.80;45.75;102428.56;5054146;28;20479;-87
2021/07/22 04:22:45;;;;;;;8.30;7.32;;;;;;;23.81;46.12;102430.31;5038226;28;20033;-86
2021/07/22 04:25:11;;;;;;;10.55;7.57;;;;;;;23.81;45.82;102429.44;5053528;28;20075;-78
2021/07/22 04:27:37;;;;;;;7.68;6.82;;;;;;;23.84;46.13;102429.38;5054052;28;20161;-77
2021/07/22 04:30:03;;;;;;;8.63;7.70;;;;;;;23.86;45.94;102425.00;5052647;28;20536;-76
2021/07/22 04:32:30;;;;;;;10.32;8.23;;;;;;;23.89;46.01;102421.44;5036210;28;20553;-77
2021/07/22 04:34:55;;;;;;;9.90;8.48;;;;;;;23.93;45.69;102431.94;5019446;28;20049;-76
2021/07/22 04:37:20;;;;;;;9.65;8.65;;;;;;;23.94;46.15;102423.16;5019563;28;20036;-75
2021/07/22 04:39:46;;;;;;;12.15;8.55;;;;;;;23.95;46.05;102424.91;5052809;28;20378;-76
2021/07/22 04:42:11;;;;;;;9.55;8.65;;;;;;;23.96;46.09;102423.16;5036079;28;20458;-82
2021/07/22 04:44:36;;;;;;;9.75;8.75;;;;;;;23.97;46.28;102435.38;5052784;28;20059;-82
2021/07/22 04:47:02;;;;;;;9.52;8.50;;;;;;;23.98;46.37;102430.13;5036115;28;20037;-82
2021/07/22 04:49:27;;;;;;;9.85;8.68;;;;;;;23.99;46.04;102438.88;5035823;28;20044;-81
2021/07/22 04:51:53;;;;;;;9.73;8.38;;;;;;;23.98;46.38;102434.53;5035935;28;20065;-83
2021/07/22 04:54:18;;;;;;;9.55;8.65;;;;;;;23.97;46.29;102431.00;5059936;28;20044;-83
2021/07/22 04:56:44;;;;;;;10.25;9.15;;;;;;;23.97;46.17;102431.00;5036833;28;20029;-82
2021/07/22 04:59:09;;;;;;;9.60;8.60;;;;;;;23.96;46.11;102437.16;5019370;28;20464;-82
2021/07/22 05:01:35;;;;;;;10.82;8.02;;;;;;;23.90;45.58;102437.22;5053604;28;20025;-85
2021/07/22 05:04:00;;;;;;;10.80;9.13;;;;;;;23.82;45.52;102433.78;5054697;28;20049;-86
2021/07/22 05:06:26;;;;;;;10.45;8.70;;;;;;;23.72;44.64;102442.66;5057593;28;20039;-86
2021/07/22 05:08:51;;;;;;;11.23;8.73;;;;;;;23.65;44.45;102436.59;5042109;28;20040;-86
2021/07/22 05:11:17;;;;;;;11.45;8.10;;;;;;;23.65;44.40;102440.94;5064918;28;20017;-86
2021/07/22 05:13:43;;;;;;;10.00;8.15;;;;;;;23.64;43.50;102444.47;5061176;28;20021;-84
2021/07/22 05:16:09;;;;;;;11.55;8.48;;;;;;;23.68;44.12;102435.69;5056981;28;20122;-85
2021/07/22 05:18:39;;;;;;;14.00;7.80;;;;;;;23.61;43.71;102433.09;5063394;28;20025;-85
2021/07/22 05:21:05;;;;;;;11.07;7.60;;;;;;;23.62;43.48;102437.47;5060883;28;20036;-84
2021/07/22 05:23:32;;;;;;;11.85;7.70;;;;;;;23.56;43.09;102441.91;5041107;28;20033;-87
2021/07/22 05:25:57;;;;;;;9.48;7.45;;;;;;;23.51;43.15;102441.09;5061309;28;20037;-89
2021/07/22 05:28:23;;;;;;;11.52;7.22;;;;;;;23.46;43.19;102441.13;5043473;28;20033;-88
2021/07/22 05:30:48;;;;;;;11.77;7.03;;;;;;;23.47;43.05;102437.59;5044308;28;20391;-87
2021/07/22 05:33:13;;;;;;;8.38;7.03;;;;;;;23.48;43.08;102441.13;5046646;28;20079;-88
2021/07/22 05:35:39;;;;;;;12.75;8.10;;;;;;;23.42;43.22;102442.03;5030658;28;20029;-91
2021/07/22 05:38:04;;;;;;;15.32;10.30;;;;;;;23.39;43.17;102444.72;5034119;28;20025;-88
2021/07/22 05:40:30;;;;;;;14.18;10.75;;;;;;;23.39;42.79;102437.69;5068676;28;20028;-90
2021/07/22 05:42:55;;;;;;;16.63;11.45;;;;;;;23.42;42.81;102442.03;5049947;28;20044;-89
2021/07/22 05:45:20;;;;;;;17.42;11.02;;;;;;;23.45;42.98;102444.63;5031692;28;20418;-89
2021/07/22 05:47:46;;;;;;;17.45;11.18;;;;;;;23.49;42.51;102445.47;5031242;28;20029;-89
2021/07/22 05:50:11;;;;;;;14.50;10.95;;;;;;;23.51;42.61;102447.22;5051378;28;20047;-90
2021/07/22 05:52:37;;;;;;;15.55;11.20;;;;;;;23.44;42.51;102447.28;5041531;28;20033;-91
2021/07/22 05:55:03;;;;;;;15.40;10.55;;;;;;;23.48;42.44;102446.38;5040891;28;20097;-90
2021/07/22 05:57:29;;;;;;;12.05;9.75;;;;;;;23.46;42.64;102441.13;5072747;28;20017;-91
2021/07/22 05:59:54;;;;;;;12.80;9.90;;;;;;;23.44;42.25;102444.66;5057866;28;20024;-91
2021/07/22 06:02:19;;;;;;;10.73;9.10;;;;;;;23.36;42.32;102442.09;5038725;28;20033;-91
2021/07/22 06:04:45;;;;;;;14.52;9.15;;;;;;;23.37;42.46;102438.59;5042761;28;20056;-90
2021/07/22 06:07:10;;;;;;;10.82;8.20;;;;;;;23.37;42.17;102436.84;5056698;28;20037;-92
2021/07/22 06:09:35;;;;;;;11.88;7.88;;;;;;;23.28;42.22;102442.16;5044294;28;20084;-90
2021/07/22 06:12:01;;;;;;;8.77;7.40;;;;;;;23.30;42.08;102445.66;5072317;28;20029;-88
2021/07/22 06:14:26;;;;;;;8.95;7.00;;;;;;;23.23;42.26;102440.44;5048958;28;20100;-88
2021/07/22 06:16:52;;;;;;;11.05;7.88;;;;;;;23.29;42.44;102450.91;5055691;28;20357;-90
2021/07/22 06:19:17;;;;;;;10.50;7.50;;;;;;;23.37;42.17;102449.09;5051516;28;20029;-90
2021/07/22 06:21:43;;;;;;;9.95;7.35;;;;;;;23.35;42.01;102443.84;5028597;28;20040;-91
2021/07/22 06:24:08;;;;;;;9.38;6.82;;;;;;;23.30;41.90;102443.03;5040755;28;20029;-91
2021/07/22 06:26:34;;;;;;;7.85;6.38;;;;;;;23.21;42.15;102445.72;5040437;28;20160;-91
2021/07/22 06:29:01;;;;;;;8.48;6.47;;;;;;;23.28;41.90;102444.78;5056865;28;20467;-90
2021/07/22 06:31:27;;;;;;;7.75;6.15;;;;;;;23.24;42.07;102450.94;5068285;28;20024;-90
2021/07/22 06:33:52;;;;;;;8.23;6.25;;;;;;;23.24;42.13;102445.69;5044351;28;20075;-88
2021/07/22 06:36:17;;;;;;;7.38;5.43;;;;;;;23.15;42.23;102440.53;5041055;28;20082;-93
2021/07/22 06:38:43;;;;;;;9.55;6.50;;;;;;;23.24;42.25;102442.22;5040057;28;20083;-89
2021/07/22 06:41:10;;;;;;;9.35;5.90;;;;;;;23.21;42.05;102445.72;5039334;28;20029;-89
2021/07/22 06:43:36;;;;;;;7.22;5.10;;;;;;;23.23;42.32;102453.59;5038674;28;20029;-88
2021/07/22 06:46:01;;;;;;;8.40;5.40;;;;;;;23.21;42.23;102440.44;5022213;28;20025;-90
2021/07/22 06:48:27;;;;;;;7.10;5.50;;;;;;;23.19;42.12;102445.75;5073706;28;20036;-89
2021/07/22 06:50:52;;;;;;;10.07;5.50;;;;;;;23.20;42.22;102447.47;5039525;28;20494;-89
2021/07/22 06:53:18;;;;;;;10.13;5.18;;;;;;;23.22;42.08;102443.97;5023866;28;20074;-85
2021/07/22 06:55:44;;;;;;;8.73;4.88;;;;;;;23.24;42.13;102448.31;5055287;28;20033;-85
2021/07/22 06:58:09;;;;;;;9.48;5.50;;;;;;;23.22;42.41;102447.47;5038332;28;20021;-83
2021/07/22 07:00:36;;;;;;;9.52;5.03;;;;;;;23.19;42.20;102450.09;5054757;28;20029;-85
2021/07/22 07:03:06;;;;;;;7.30;4.68;;;;;;;23.19;42.22;102451.00;5037966;28;20025;-84
2021/07/22 07:05:32;;;;;;;8.45;5.43;;;;;;;23.23;42.12;102456.22;5037861;28;20020;-84
2021/07/22 07:07:58;;;;;;;7.97;5.05;;;;;;;23.19;42.59;102452.72;5054492;28;20029;-84
2021/07/22 07:10:24;;;;;;;10.52;5.32;;;;;;;23.35;42.23;102451.72;5037513;28;20033;-82
2021/07/22 07:12:51;;;;;;;6.97;4.80;;;;;;;23.49;41.98;102456.00;5054591;28;20082;-83
2021/07/22 07:15:17;;;;;;;9.75;5.22;;;;;;;23.59;41.69;102458.53;5053853;28;20033;-84
2021/07/22 07:17:42;;;;;;;8.43;4.78;;;;;;;23.68;42.08;102454.94;5020176;28;20027;-83
2021/07/22 07:20:08;;;;;;;8.77;5.40;;;;;;;23.75;41.64;102464.53;5037771;28;20475;-84
2021/07/22 07:22:33;;;;;;;8.35;5.05;;;;;;;23.81;41.52;102459.22;5020796;28;20120;-83
2021/07/22 07:24:59;;;;;;;9.38;4.68;;;;;;;23.86;41.19;102453.03;5037385;28;20033;-83
2021/07/22 07:27:24;;;;;;;10.35;5.20;;;;;;;23.89;41.13;102456.53;5037118;28;20033;-83
2021/07/22 07:29:49;;;;;;;10.75;5.15;;;;;;;23.92;41.42;102456.47;5037245;28;20021;-84
2021/07/22 07:32:15;;;;;;;8.10;5.38;;;;;;;23.96;41.43;102452.06;5021553;28;20119;-84
2021/07/22 07:34:41;;;;;;;7.57;4.85;;;;;;;24.01;41.11;102464.25;5053586;28;20554;-83
2021/07/22 07:37:06;;;;;;;8.93;4.90;;;;;;;24.06;41.36;102458.09;5020486;28;20053;-83
2021/07/22 07:39:34;;;;;;;6.80;5.03;;;;;;;24.06;41.73;102458.09;5036944;28;20116;-84
2021/07/22 07:42:00;;;;;;;5.82;4.85;;;;;;;24.06;41.48;102453.69;5021001;28;20033;-84
2021/07/22 07:44:25;;;;;;;7.05;4.85;;;;;;;24.09;41.49;102468.59;5053528;28;20035;-84
2021/07/22 07:46:50;;;;;;;6.72;4.90;;;;;;;24.12;41.83;102463.28;5020420;28;20537;-83
2021/07/22 07:49:16;;;;;;;6.95;5.30;;;;;;;24.15;41.62;102468.50;5037158;28;20033;-83
2021/07/22 07:51:41;;;;;;;7.82;5.20;;;;;;;24.16;41.67;102465.00;5020390;28;20485;-83
2021/07/22 07:54:07;;;;;;;7.65;5.50;;;;;;;24.16;41.90;102463.22;5037303;28;20029;-83
2021/07/22 07:56:32;;;;;;;5.82;5.13;;;;;;;24.17;41.88;102458.81;5020233;28;20112;-83
2021/07/22 07:58:58;;;;;;;8.80;5.68;;;;;;;24.17;41.68;102450.94;5053431;28;20060;-83
2021/07/22 08:01:27;;;;;;;7.32;4.65;;;;;;;24.18;41.74;102464.06;5020181;28;20036;-84
2021/07/22 08:03:52;;;;;;;8.88;4.93;;;;;;;24.20;41.73;102451.78;5037077;28;20037;-84
2021/07/22 08:06:17;;;;;;;6.00;5.40;;;;;;;24.23;41.73;102454.34;5036472;28;20025;-83
2021/07/22 08:08:43;;;;;;;7.60;5.25;;;;;;;24.26;41.85;102460.47;5036482;28;20036;-83
2021/07/22 08:11:08;;;;;;;6.90;5.55;;;;;;;24.27;42.08;102456.97;5036581;28;20048;-83
2021/07/22 08:13:33;;;;;;;8.65;4.97;;;;;;;24.29;41.93;102466.59;5019969;28;20119;-83
2021/07/22 08:15:59;;;;;;;6.63;5.38;;;;;;;24.29;42.02;102458.69;5036355;28;20041;-83
2021/07/22 08:18:24;;;;;;;8.05;5.50;;;;;;;24.28;42.38;102463.97;5019738;28;20063;-83
2021/07/22 08:20:49;;;;;;;6.90;5.93;;;;;;;24.32;42.13;102463.03;5019704;28;20025;-83
2021/07/22 08:23:15;;;;;;;6.93;5.18;;;;;;;24.33;42.12;102463.03;5052982;28;20436;-83
2021/07/22 08:25:40;;;;;;;6.22;5.43;;;;;;;24.33;42.57;102454.28;5052805;28;20025;-83
2021/07/22 08:28:06;;;;;;;7.50;5.70;;;;;;;24.35;42.39;102461.25;5052169;28;20414;-84
2021/07/22 08:30:33;;;;;;;6.40;5.60;;;;;;;24.36;42.61;102449.81;5036469;28;20239;-82
2021/07/22 08:32:58;;;;;;;6.85;5.65;;;;;;;24.38;42.60;102455.94;5054114;28;20025;-84
2021/07/22 08:35:26;;;;;;;6.22;5.43;;;;;;;24.40;42.64;102453.28;5035948;28;20064;-84
2021/07/22 08:37:51;;;;;;;7.38;6.20;;;;;;;24.40;42.52;102456.78;5036289;28;20029;-84
2021/07/22 08:40:17;;;;;;;5.57;5.07;;;;;;;24.37;42.41;102454.22;5035963;28;20086;-85
2021/07/22 08:42:44;;;;;;;6.85;6.15;;;;;;;24.40;42.44;102455.94;5052470;28;20036;-85
2021/07/22 08:45:11;;;;;;;6.57;5.50;;;;;;;24.38;42.52;102442.78;5035923;28;20091;-84
2021/07/22 08:47:37;;;;;;;5.80;5.20;;;;;;;24.40;42.39;102445.41;5052404;28;20039;-85
2021/07/22 08:50:04;;;;;;;5.70;4.93;;;;;;;24.38;42.59;102445.41;5052488;28;20037;-85
2021/07/22 08:52:29;;;;;;;11.00;5.72;;;;;;;24.40;42.61;102451.53;5036010;28;20116;-84
2021/07/22 08:54:54;;;;;;;7.13;6.30;;;;;;;24.40;42.63;102456.78;5019388;28;20116;-85
2021/07/22 08:57:28;;;;;;;6.30;5.53;;;;;;;24.42;42.72;102452.38;5035736;28;20095;-85
2021/07/22 08:59:53;;;;;;;;;;;;;;;24.44;42.58;102453.22;5052747;28;20029;-84
2021/07/22 09:02:20;;;;;;;6.03;5.10;;;;;;;24.47;42.79;102448.81;5053572;28;20046;-84
2021/07/22 09:04:54;;;;;;;7.18;5.78;;;;;;;24.44;42.78;102449.75;5053295;28;20031;-84
2021/07/22 09:07:20;;;;;;;6.18;5.57;;;;;;;24.48;42.83;102450.59;5020340;28;20036;-84
2021/07/22 09:10:04;;;;;;;8.32;5.80;;;;;;;24.47;42.84;102449.69;5019259;28;20391;-85
2021/07/22 09:12:46;;;;;;;6.43;5.30;;;;;;;24.47;42.70;102444.41;5053296;28;20040;-84
2021/07/22 09:15:19;;;;;;;6.57;5.55;;;;;;;24.47;42.98;102443.56;5051964;28;20040;-84
2021/07/22 09:17:44;;;;;;;6.45;5.28;;;;;;;24.48;42.87;102445.31;5052382;28;20044;-84
2021/07/22 09:20:11;;;;;;;6.97;5.63;;;;;;;24.47;42.95;102446.19;5051934;28;20025;-84
2021/07/22 09:22:41;;;;;;;6.20;5.53;;;;;;;24.48;42.60;102445.31;5035293;28;20128;-84
2021/07/22 09:25:11;;;;;;;6.28;5.50;;;;;;;24.49;42.62;102460.22;5052117;28;20028;-84
2021/07/22 09:27:41;;;;;;;6.55;5.35;;;;;;;24.49;42.81;102460.22;5052020;28;20036;-84
2021/07/22 09:30:18;;;;;;;6.75;5.18;;;;;;;24.49;43.16;102453.19;5051906;28;20383;-84
2021/07/22 09:32:50;;;;;;;7.13;5.38;;;;;;;24.49;42.98;102453.19;5035356;28;20025;-84
2021/07/22 09:35:21;;;;;;;6.32;5.28;;;;;;;24.48;42.77;102454.09;5036037;28;20049;-83
2021/07/22 09:37:50;;;;;;;6.05;5.30;;;;;;;24.49;43.15;102465.50;5051936;28;20155;-84
2021/07/22 09:40:33;;;;;;;6.47;5.18;;;;;;;24.49;42.89;102462.88;5037433;28;20036;-84
2021/07/22 09:42:58;;;;;;;6.10;5.50;;;;;;;24.47;43.46;102459.34;5055937;28;20483;-82
2021/07/22 09:45:35;;;;;;;5.47;4.97;;;;;;;24.49;42.94;102460.22;5056179;28;20037;-84
2021/07/22 09:48:09;;;;;;;5.60;4.78;;;;;;;24.48;43.37;102463.75;5055713;28;20029;-84
2021/07/22 09:50:43;;;;;;;6.35;5.55;;;;;;;24.49;43.39;102463.72;5039240;28;20040;-83
2021/07/22 09:53:13;;;;;;;6.57;5.60;;;;;;;24.49;42.90;102461.09;5039805;28;20501;-83
2021/07/22 09:55:41;;;;;;;5.15;4.60;;;;;;;24.48;43.51;102466.38;5056905;28;20052;-84
2021/07/22 09:58:08;;;;;;;6.38;5.70;;;;;;;24.48;43.04;102458.47;5055553;28;20049;-83
2021/07/22 10:00:37;;;;;;;6.35;5.75;;;;;;;24.47;43.49;102459.34;5055623;28;20360;-84
2021/07/22 10:03:05;;;;;;;7.25;4.95;;;;;;;24.48;43.26;102451.47;5039298;28;20025;-84
2021/07/22 10:05:40;;;;;;;6.07;5.22;;;;;;;24.49;43.37;102462.88;5055750;28;20051;-84
2021/07/22 10:08:07;;;;;;;6.45;4.45;;;;;;;24.51;43.31;102458.47;5055785;28;20135;-84
2021/07/22 10:10:34;;;;;;;6.97;5.47;;;;;;;24.51;43.09;102461.94;5056043;28;20131;-84
2021/07/22 10:13:01;;;;;;;5.47;4.97;;;;;;;24.50;43.14;102449.69;5060336;28;20032;-84
2021/07/22 10:15:36;;;;;;;5.60;4.80;;;;;;;24.52;43.18;102455.81;5040061;28;20036;-84
2021/07/22 10:18:04;;;;;;;5.35;4.85;;;;;;;24.52;42.75;102447.03;5055632;28;20070;-84
2021/07/22 10:20:32;;;;;;;5.65;4.40;;;;;;;24.54;42.38;102447.88;5055274;28;20036;-84
2021/07/22 10:22:58;;;;;;;5.30;4.80;;;;;;;24.54;42.46;102447.88;5038708;28;20235;-83
2021/07/22 10:25:25;;;;;;;5.63;4.50;;;;;;;24.54;42.77;102448.78;5055473;28;20479;-84
2021/07/22 10:27:52;;;;;;;7.22;4.95;;;;;;;24.54;42.28;102453.13;5038263;28;20033;-84
2021/07/22 10:30:19;;;;;;;5.80;5.13;;;;;;;24.53;42.63;102444.38;5038477;28;20032;-84
2021/07/22 10:32:51;;;;;;;5.32;4.38;;;;;;;24.54;42.59;102445.25;5055350;28;20044;-83
2021/07/22 10:35:27;;;;;;;4.77;4.00;;;;;;;24.54;41.97;102445.25;5056142;28;20048;-84
2021/07/22 10:38:20;;;;;;;6.28;4.07;;;;;;;24.55;42.08;102439.97;5055531;28;20079;-90
2021/07/22 10:40:51;;;;;;;4.88;4.45;;;;;;;24.57;42.42;102447.84;5054944;28;20025;-83
2021/07/22 10:43:32;;;;;;;4.95;4.40;;;;;;;24.57;42.13;102442.59;5055912;28;20033;-84
2021/07/22 10:45:57;;;;;;;5.38;4.47;;;;;;;24.56;42.44;102441.72;5054514;28;20131;-84
2021/07/22 10:48:27;;;;;;;5.72;3.95;;;;;;;24.56;42.55;102440.84;5054482;28;20058;-83
2021/07/22 10:50:55;;;;;;;5.50;4.38;;;;;;;24.56;42.45;102436.47;5056101;28;20127;-84
2021/07/22 10:53:38;;;;;;;5.35;4.85;;;;;;;24.57;42.07;102439.97;5055423;28;20025;-84
2021/07/22 10:56:06;;;;;;;4.82;4.00;;;;;;;24.57;42.20;102435.56;5055142;28;20031;-83
2021/07/22 10:58:34;;;;;;;4.75;4.30;;;;;;;24.57;42.49;102434.69;5021502;28;20472;-83
2021/07/22 11:01:04;;;;;;;5.07;4.30;;;;;;;24.56;42.52;102436.47;5054430;28;20036;-84
2021/07/22 11:03:32;;;;;;;6.35;4.13;;;;;;;24.57;42.43;102432.06;5037669;28;20415;-84
2021/07/22 11:05:59;;;;;;;6.88;4.00;;;;;;;24.56;41.89;102439.09;5054389;28;20135;-83
2021/07/22 11:08:25;;;;;;;6.47;4.63;;;;;;;24.58;42.25;102426.75;5037342;28;20033;-84
2021/07/22 11:10:55;;;;;;;4.75;4.35;;;;;;;24.59;42.72;102435.53;5037720;28;20029;-84
2021/07/22 11:16:28;;;;;;;5.53;4.47;;;;;;;24.57;42.52;102419.75;5055379;28;20033;-84
2021/07/22 11:18:54;;;;;;;7.22;5.20;;;;;;;24.59;42.64;102430.28;5053758;28;20017;-84
2021/07/22 11:21:34;;;;;;;5.63;4.03;;;;;;;24.59;42.35;102417.13;5054085;28;20420;-84
2021/07/22 11:24:08;;;;;;;5.45;4.95;;;;;;;24.60;42.70;102418.84;5053914;28;20387;-84
2021/07/22 11:26:38;;;;;;;5.03;4.45;;;;;;;24.60;42.56;102417.06;5053913;28;20068;-85